Akune, Japan
Current Conditions -  °F | °C
As of 5:09 PM on Friday 19 Dec 2014 (Local Time) from RJFK Reporting Station
Smoke Smoke  
Wind Chill: 44°   Ceiling: 15000
Heat Index: 46°   Visibility: 6mi
Dew Point: 34°   Wind: 5mph
Humidity: 62%   Direction: 90°E
Pressure: 30.3"   Gusts: NA
Location:  32.01°N, 130.2°E
Report Text: RJFK 190809Z 09004KT 9999 VCVA FEW030 SCT045 BKN150 08/01 Q1026 RMK 1CU030 3CU045 7AC150 A3031 ASH FALL VOLCANIC ASH CLOUD S
Loading
Personal Weather Stations






























Interactive Weather Map New forecast layout! Learn more

10-Day Weather Forecast

Advertisements
Track Severe Weather on mobile